sensor_id;sensor_type;location;lat;lon;timestamp;pressure;altitude;pressure_sealevel;temperature;humidity
12468;BME280;57850;52.922;6.256;2023-05-25T00:02:21;102921.75;;;10.61;100.00
12468;BME280;57850;52.922;6.256;2023-05-25T00:04:48;102909.53;;;10.62;100.00
12468;BME280;57850;52.922;6.256;2023-05-25T00:07:16;102899.13;;;10.53;100.00
12468;BME280;57850;52.922;6.256;2023-05-25T00:09:43;102899.16;;;10.50;100.00
12468;BME280;57850;52.922;6.256;2023-05-25T00:12:13;102886.97;;;10.58;100.00
12468;BME280;57850;52.922;6.256;2023-05-25T00:14:39;102866.09;;;10.55;100.00
12468;BME280;57850;52.922;6.256;2023-05-25T00:17:06;102857.38;;;10.54;100.00
12468;BME280;57850;52.922;6.256;2023-05-25T00:19:34;102834.66;;;10.79;100.00
12468;BME280;57850;52.922;6.256;2023-05-25T00:22:00;102862.34;;;11.06;100.00
12468;BME280;57850;52.922;6.256;2023-05-25T00:24:27;102867.50;;;11.21;100.00
12468;BME280;57850;52.922;6.256;2023-05-25T00:26:54;102876.28;;;11.03;100.00
12468;BME280;57850;52.922;6.256;2023-05-25T00:29:22;102905.16;;;10.79;100.00
12468;BME280;57850;52.922;6.256;2023-05-25T00:31:50;102910.47;;;10.52;100.00
12468;BME280;57850;52.922;6.256;2023-05-25T00:34:17;102897.47;;;10.40;100.00
12468;BME280;57850;52.922;6.256;2023-05-25T00:36:43;102881.84;;;10.15;100.00
12468;BME280;57850;52.922;6.256;2023-05-25T00:39:12;102842.69;;;10.25;100.00
12468;BME280;57850;52.922;6.256;2023-05-25T00:41:41;102819.16;;;10.38;100.00
12468;BME280;57850;52.922;6.256;2023-05-25T00:44:09;102848.75;;;10.36;100.00
12468;BME280;57850;52.922;6.256;2023-05-25T00:46:37;102870.53;;;10.15;100.00
12468;BME280;57850;52.922;6.256;2023-05-25T00:49:04;102859.19;;;10.25;100.00
12468;BME280;57850;52.922;6.256;2023-05-25T00:51:30;102867.03;;;10.25;100.00
12468;BME280;57850;52.922;6.256;2023-05-25T00:53:58;102865.25;;;10.41;100.00
12468;BME280;57850;52.922;6.256;2023-05-25T00:56:29;102873.06;;;10.47;100.00
12468;BME280;57850;52.922;6.256;2023-05-25T00:58:56;102884.34;;;10.53;100.00
12468;BME280;57850;52.922;6.256;2023-05-25T01:01:26;102886.06;;;10.68;100.00
12468;BME280;57850;52.922;6.256;2023-05-25T01:04:00;102885.03;;;10.93;100.00
12468;BME280;57850;52.922;6.256;2023-05-25T01:06:31;102892.09;;;10.77;100.00
12468;BME280;57850;52.922;6.256;2023-05-25T01:09:02;102888.69;;;10.65;100.00
12468;BME280;57850;52.922;6.256;2023-05-25T01:11:31;102917.44;;;10.45;100.00
12468;BME280;57850;52.922;6.256;2023-05-25T01:13:58;102930.50;;;10.35;100.00
12468;BME280;57850;52.922;6.256;2023-05-25T01:16:25;102925.28;;;10.36;100.00
12468;BME280;57850;52.922;6.256;2023-05-25T01:18:52;102947.06;;;10.20;100.00
12468;BME280;57850;52.922;6.256;2023-05-25T01:21:22;102941.81;;;10.08;100.00
12468;BME280;57850;52.922;6.256;2023-05-25T01:23:55;102938.34;;;10.04;100.00
12468;BME280;57850;52.922;6.256;2023-05-25T01:26:25;102916.59;;;10.08;100.00
12468;BME280;57850;52.922;6.256;2023-05-25T01:28:54;102910.50;;;10.21;100.00
12468;BME280;57850;52.922;6.256;2023-05-25T01:31:22;102916.63;;;10.14;100.00
12468;BME280;57850;52.922;6.256;2023-05-25T01:33:50;102920.94;;;10.21;100.00
12468;BME280;57850;52.922;6.256;2023-05-25T01:36:17;102918.38;;;10.17;100.00
12468;BME280;57850;52.922;6.256;2023-05-25T01:38:45;102909.63;;;10.06;100.00
12468;BME280;57850;52.922;6.256;2023-05-25T01:41:12;102927.91;;;9.82;100.00
12468;BME280;57850;52.922;6.256;2023-05-25T01:43:38;102909.66;;;9.89;100.00
12468;BME280;57850;52.922;6.256;2023-05-25T01:46:11;102890.53;;;9.89;100.00
12468;BME280;57850;52.922;6.256;2023-05-25T01:48:46;102894.88;;;9.76;100.00
12468;BME280;57850;52.922;6.256;2023-05-25T01:51:18;102906.16;;;9.81;100.00
12468;BME280;57850;52.922;6.256;2023-05-25T01:53:53;102899.22;;;9.94;100.00
12468;BME280;57850;52.922;6.256;2023-05-25T01:56:20;102906.19;;;9.83;100.00
12468;BME280;57850;52.922;6.256;2023-05-25T01:58:48;102905.31;;;9.76;100.00
12468;BME280;57850;52.922;6.256;2023-05-25T02:01:16;102908.78;;;9.77;100.00
12468;BME280;57850;52.922;6.256;2023-05-25T02:03:46;102898.34;;;9.86;100.00
12468;BME280;57850;52.922;6.256;2023-05-25T02:06:14;102890.53;;;9.98;100.00
12468;BME280;57850;52.922;6.256;2023-05-25T02:08:41;102900.09;;;9.94;100.00
12468;BME280;57850;52.922;6.256;2023-05-25T02:11:11;102910.53;;;9.88;100.00
12468;BME280;57850;52.922;6.256;2023-05-25T02:13:38;102914.00;;;9.81;100.00
12468;BME280;57850;52.922;6.256;2023-05-25T02:16:06;102910.50;;;9.75;100.00
12468;BME280;57850;52.922;6.256;2023-05-25T02:18:32;102922.69;;;9.60;100.00
12468;BME280;57850;52.922;6.256;2023-05-25T02:20:59;102921.78;;;9.51;100.00
12468;BME280;57850;52.922;6.256;2023-05-25T02:23:25;102922.63;;;9.35;100.00
12468;BME280;57850;52.922;6.256;2023-05-25T02:25:52;102927.00;;;9.48;100.00
12468;BME280;57850;52.922;6.256;2023-05-25T02:28:20;102947.84;;;9.51;100.00
12468;BME280;57850;52.922;6.256;2023-05-25T02:30:46;102964.31;;;9.44;100.00
12468;BME280;57850;52.922;6.256;2023-05-25T02:33:12;102965.22;;;9.59;100.00
12468;BME280;57850;52.922;6.256;2023-05-25T02:35:39;102976.50;;;9.55;100.00
12468;BME280;57850;52.922;6.256;2023-05-25T02:38:05;102979.09;;;9.52;100.00
12468;BME280;57850;52.922;6.256;2023-05-25T02:40:32;102975.63;;;9.53;100.00
12468;BME280;57850;52.922;6.256;2023-05-25T02:42:59;102967.81;;;9.47;100.00
12468;BME280;57850;52.922;6.256;2023-05-25T02:45:27;102954.81;;;9.55;100.00
12468;BME280;57850;52.922;6.256;2023-05-25T02:47:53;102949.53;;;9.31;100.00
12468;BME280;57850;52.922;6.256;2023-05-25T02:50:20;102933.06;;;9.56;100.00
12468;BME280;57850;52.922;6.256;2023-05-25T02:52:46;102937.44;;;9.58;100.00
12468;BME280;57850;52.922;6.256;2023-05-25T02:55:13;102941.78;;;9.59;100.00
12468;BME280;57850;52.922;6.256;2023-05-25T02:57:39;102928.78;;;9.73;100.00
12468;BME280;57850;52.922;6.256;2023-05-25T03:00:07;102927.88;;;9.60;100.00
12468;BME280;57850;52.922;6.256;2023-05-25T03:02:37;102930.50;;;9.57;100.00
12468;BME280;57850;52.922;6.256;2023-05-25T03:05:03;102930.47;;;9.65;100.00
12468;BME280;57850;52.922;6.256;2023-05-25T03:07:30;102906.16;;;9.66;100.00
12468;BME280;57850;52.922;6.256;2023-05-25T03:09:57;102913.13;;;9.73;100.00
12468;BME280;57850;52.922;6.256;2023-05-25T03:12:23;102917.47;;;9.69;100.00
12468;BME280;57850;52.922;6.256;2023-05-25T03:14:50;102913.13;;;9.67;100.00
12468;BME280;57850;52.922;6.256;2023-05-25T03:17:16;102905.31;;;9.67;100.00
12468;BME280;57850;52.922;6.256;2023-05-25T03:19:44;102908.78;;;9.81;100.00
12468;BME280;57850;52.922;6.256;2023-05-25T03:22:11;102932.22;;;9.78;100.00
12468;BME280;57850;52.922;6.256;2023-05-25T03:24:37;102933.97;;;9.94;100.00
12468;BME280;57850;52.922;6.256;2023-05-25T03:27:05;102952.22;;;9.75;100.00
12468;BME280;57850;52.922;6.256;2023-05-25T03:29:32;102964.38;;;9.71;100.00
12468;BME280;57850;52.922;6.256;2023-05-25T03:31:58;102977.41;;;9.68;100.00
12468;BME280;57850;52.922;6.256;2023-05-25T03:34:25;102971.31;;;9.63;100.00
12468;BME280;57850;52.922;6.256;2023-05-25T03:36:53;102982.59;;;9.53;100.00
12468;BME280;57850;52.922;6.256;2023-05-25T03:39:20;102985.19;;;9.42;100.00
12468;BME280;57850;52.922;6.256;2023-05-25T03:41:47;102973.03;;;9.46;100.00
12468;BME280;57850;52.922;6.256;2023-05-25T03:44:13;102992.91;;;9.17;100.00
12468;BME280;57850;52.922;6.256;2023-05-25T03:46:40;103000.66;;;9.12;100.00
12468;BME280;57850;52.922;6.256;2023-05-25T03:49:07;102985.09;;;9.17;100.00
12468;BME280;57850;52.922;6.256;2023-05-25T03:51:38;102968.63;;;9.21;100.00
12468;BME280;57850;52.922;6.256;2023-05-25T03:54:06;102963.41;;;9.21;100.00
12468;BME280;57850;52.922;6.256;2023-05-25T03:56:32;102966.88;;;9.20;100.00
12468;BME280;57850;52.922;6.256;2023-05-25T03:58:59;102935.63;;;9.26;100.00
12468;BME280;57850;52.922;6.256;2023-05-25T04:01:25;102926.94;;;9.31;100.00
12468;BME280;57850;52.922;6.256;2023-05-25T04:03:54;102927.88;;;9.42;100.00
12468;BME280;57850;52.922;6.256;2023-05-25T04:06:21;102908.75;;;9.51;100.00
12468;BME280;57850;52.922;6.256;2023-05-25T04:08:49;102916.56;;;9.52;100.00
12468;BME280;57850;52.922;6.256;2023-05-25T04:11:17;102935.72;;;9.63;100.00
12468;BME280;57850;52.922;6.256;2023-05-25T04:13:44;102955.69;;;9.66;100.00
12468;BME280;57850;52.922;6.256;2023-05-25T04:16:10;102974.81;;;9.69;100.00
12468;BME280;57850;52.922;6.256;2023-05-25T04:18:37;102980.00;;;9.59;100.00
12468;BME280;57850;52.922;6.256;2023-05-25T04:21:04;102966.97;;;9.62;100.00
12468;BME280;57850;52.922;6.256;2023-05-25T04:23:30;102950.47;;;9.78;100.00
12468;BME280;57850;52.922;6.256;2023-05-25T04:25:58;102940.06;;;10.04;100.00
12468;BME280;57850;52.922;6.256;2023-05-25T04:28:26;102920.09;;;10.13;100.00
12468;BME280;57850;52.922;6.256;2023-05-25T04:30:53;102896.59;;;10.35;100.00
12468;BME280;57850;52.922;6.256;2023-05-25T04:33:21;102880.00;;;10.51;100.00
12468;BME280;57850;52.922;6.256;2023-05-25T04:35:47;102864.25;;;10.72;100.00
12468;BME280;57850;52.922;6.256;2023-05-25T04:38:14;102853.75;;;10.84;100.00
12468;BME280;57850;52.922;6.256;2023-05-25T04:40:42;102845.88;;;10.96;100.00
12468;BME280;57850;52.922;6.256;2023-05-25T04:43:10;102834.50;;;11.05;100.00
12468;BME280;57850;52.922;6.256;2023-05-25T04:45:39;102825.69;;;11.19;100.00
12468;BME280;57850;52.922;6.256;2023-05-25T04:48:05;102808.19;;;11.32;100.00
12468;BME280;57850;52.922;6.256;2023-05-25T04:50:32;102792.31;;;11.55;100.00
12468;BME280;57850;52.922;6.256;2023-05-25T04:52:58;102788.75;;;11.60;100.00
12468;BME280;57850;52.922;6.256;2023-05-25T04:55:25;102794.00;;;11.60;100.00
12468;BME280;57850;52.922;6.256;2023-05-25T04:57:52;102800.13;;;11.58;100.00
12468;BME280;57850;52.922;6.256;2023-05-25T05:00:19;102792.25;;;11.61;100.00
12468;BME280;57850;52.922;6.256;2023-05-25T05:02:47;102786.22;;;11.54;100.00
12468;BME280;57850;52.922;6.256;2023-05-25T05:05:14;102773.06;;;11.65;100.00
12468;BME280;57850;52.922;6.256;2023-05-25T05:07:41;102766.84;;;11.75;100.00
12468;BME280;57850;52.922;6.256;2023-05-25T05:10:07;102759.66;;;11.98;100.00
12468;BME280;57850;52.922;6.256;2023-05-25T05:12:34;102751.66;;;12.10;100.00
12468;BME280;57850;52.922;6.256;2023-05-25T05:15:01;102753.16;;;12.29;100.00
12468;BME280;57850;52.922;6.256;2023-05-25T05:17:27;102764.47;;;12.33;100.00
12468;BME280;57850;52.922;6.256;2023-05-25T05:19:56;102761.94;;;12.25;100.00
12468;BME280;57850;52.922;6.256;2023-05-25T05:22:23;102763.56;;;12.37;100.00
12468;BME280;57850;52.922;6.256;2023-05-25T05:24:49;102749.38;;;12.52;100.00
12468;BME280;57850;52.922;6.256;2023-05-25T05:27:16;102740.50;;;12.62;100.00
12468;BME280;57850;52.922;6.256;2023-05-25T05:29:42;102743.09;;;12.63;100.00
12468;BME280;57850;52.922;6.256;2023-05-25T05:32:09;102748.25;;;12.71;100.00
12468;BME280;57850;52.922;6.256;2023-05-25T05:34:35;102742.81;;;12.83;100.00
12468;BME280;57850;52.922;6.256;2023-05-25T05:37:04;102722.69;;;12.85;100.00
12468;BME280;57850;52.922;6.256;2023-05-25T05:39:30;102710.31;;;12.95;100.00
12468;BME280;57850;52.922;6.256;2023-05-25T05:41:57;102713.63;;;13.09;100.00
12468;BME280;57850;52.922;6.256;2023-05-25T05:44:24;102717.00;;;13.15;100.00
12468;BME280;57850;52.922;6.256;2023-05-25T05:46:50;102707.09;;;13.32;100.00
12468;BME280;57850;52.922;6.256;2023-05-25T05:49:17;102708.72;;;13.39;100.00
12468;BME280;57850;52.922;6.256;2023-05-25T05:51:43;102707.72;;;13.47;100.00
12468;BME280;57850;52.922;6.256;2023-05-25T05:54:11;102690.13;;;13.52;100.00
12468;BME280;57850;52.922;6.256;2023-05-25T05:56:38;102694.19;;;13.68;100.00
12468;BME280;57850;52.922;6.256;2023-05-25T05:59:04;102691.34;;;13.78;100.00
12468;BME280;57850;52.922;6.256;2023-05-25T06:01:31;102685.88;;;13.90;100.00
12468;BME280;57850;52.922;6.256;2023-05-25T06:03:58;102682.94;;;14.06;100.00
12468;BME280;57850;52.922;6.256;2023-05-25T06:06:24;102666.91;;;14.18;100.00
12468;BME280;57850;52.922;6.256;2023-05-25T06:08:51;102671.72;;;14.39;100.00
12468;BME280;57850;52.922;6.256;2023-05-25T06:11:19;102689.88;;;14.48;100.00
12468;BME280;57850;52.922;6.256;2023-05-25T06:13:46;102705.41;;;14.59;100.00
12468;BME280;57850;52.922;6.256;2023-05-25T06:16:12;102715.06;;;14.57;100.00
12468;BME280;57850;52.922;6.256;2023-05-25T06:18:39;102726.00;;;14.77;100.00
12468;BME280;57850;52.922;6.256;2023-05-25T06:21:05;102738.97;;;14.84;100.00
12468;BME280;57850;52.922;6.256;2023-05-25T06:23:32;102750.75;;;15.03;100.00
12468;BME280;57850;52.922;6.256;2023-05-25T06:26:02;102764.59;;;15.12;100.00
12468;BME280;57850;52.922;6.256;2023-05-25T06:28:30;102784.13;;;15.37;100.00
12468;BME280;57850;52.922;6.256;2023-05-25T06:30:56;102812.19;;;15.36;100.00
12468;BME280;57850;52.922;6.256;2023-05-25T06:33:23;102849.56;;;15.14;100.00
12468;BME280;57850;52.922;6.256;2023-05-25T06:35:50;102847.72;;;15.54;100.00
12468;BME280;57850;52.922;6.256;2023-05-25T06:38:20;102872.25;;;15.56;100.00
12468;BME280;57850;52.922;6.256;2023-05-25T06:40:47;102885.84;;;15.73;100.00
12468;BME280;57850;52.922;6.256;2023-05-25T06:43:13;102907.22;;;15.96;100.00
12468;BME280;57850;52.922;6.256;2023-05-25T06:45:41;102912.97;;;16.12;100.00
12468;BME280;57850;52.922;6.256;2023-05-25T06:48:07;102938.34;;;16.15;100.00
12468;BME280;57850;52.922;6.256;2023-05-25T06:50:34;102952.09;;;16.26;100.00
12468;BME280;57850;52.922;6.256;2023-05-25T06:53:00;102974.28;;;16.17;100.00
12468;BME280;57850;52.922;6.256;2023-05-25T06:55:27;102991.81;;;16.18;100.00
12468;BME280;57850;52.922;6.256;2023-05-25T06:57:54;102996.44;;;16.44;100.00
12468;BME280;57850;52.922;6.256;2023-05-25T07:00:20;103002.97;;;16.63;100.00
12468;BME280;57850;52.922;6.256;2023-05-25T07:02:48;103007.91;;;16.75;100.00
12468;BME280;57850;52.922;6.256;2023-05-25T07:05:15;103017.75;;;16.69;100.00
12468;BME280;57850;52.922;6.256;2023-05-25T07:07:41;103016.47;;;16.83;100.00
12468;BME280;57850;52.922;6.256;2023-05-25T07:10:08;103021.56;;;17.20;100.00
12468;BME280;57850;52.922;6.256;2023-05-25T07:12:35;103035.56;;;17.53;100.00
12468;BME280;57850;52.922;6.256;2023-05-25T07:15:01;103038.03;;;17.88;100.00
12468;BME280;57850;52.922;6.256;2023-05-25T07:17:28;103082.25;;;17.82;100.00
12468;BME280;57850;52.922;6.256;2023-05-25T07:19:56;103097.53;;;17.71;100.00
12468;BME280;57850;52.922;6.256;2023-05-25T07:22:24;103097.75;;;17.92;100.00
12468;BME280;57850;52.922;6.256;2023-05-25T07:24:50;103108.09;;;18.00;100.00
12468;BME280;57850;52.922;6.256;2023-05-25T07:27:17;103122.66;;;18.13;100.00
12468;BME280;57850;52.922;6.256;2023-05-25T07:29:44;103132.84;;;17.97;100.00
12468;BME280;57850;52.922;6.256;2023-05-25T07:32:10;103141.53;;;17.39;100.00
12468;BME280;57850;52.922;6.256;2023-05-25T07:34:37;103136.94;;;17.15;100.00
12468;BME280;57850;52.922;6.256;2023-05-25T07:37:05;103147.38;;;16.86;100.00
12468;BME280;57850;52.922;6.256;2023-05-25T07:39:31;103143.34;;;16.73;100.00
12468;BME280;57850;52.922;6.256;2023-05-25T07:41:58;103133.84;;;16.98;100.00
12468;BME280;57850;52.922;6.256;2023-05-25T07:44:26;103147.28;;;16.89;100.00
12468;BME280;57850;52.922;6.256;2023-05-25T07:46:53;103142.47;;;17.06;100.00
12468;BME280;57850;52.922;6.256;2023-05-25T07:49:19;103147.22;;;17.26;100.00
12468;BME280;57850;52.922;6.256;2023-05-25T07:51:46;103145.09;;;17.38;100.00
12468;BME280;57850;52.922;6.256;2023-05-25T07:54:14;103145.34;;;17.61;100.00
12468;BME280;57850;52.922;6.256;2023-05-25T07:56:40;103136.16;;;17.75;100.00
12468;BME280;57850;52.922;6.256;2023-05-25T07:59:07;103153.09;;;17.35;100.00
12468;BME280;57850;52.922;6.256;2023-05-25T08:01:34;103162.72;;;17.36;100.00
12468;BME280;57850;52.922;6.256;2023-05-25T08:04:01;103180.28;;;17.05;100.00
12468;BME280;57850;52.922;6.256;2023-05-25T08:06:27;103184.25;;;17.21;100.00
12468;BME280;57850;52.922;6.256;2023-05-25T08:08:54;103176.91;;;17.32;100.00
12468;BME280;57850;52.922;6.256;2023-05-25T08:11:22;103190.19;;;17.29;100.00
12468;BME280;57850;52.922;6.256;2023-05-25T08:13:50;103176.06;;;17.64;100.00
12468;BME280;57850;52.922;6.256;2023-05-25T08:16:17;103179.41;;;18.00;100.00
12468;BME280;57850;52.922;6.256;2023-05-25T08:18:43;103162.72;;;18.27;100.00
12468;BME280;57850;52.922;6.256;2023-05-25T08:21:10;103165.34;;;18.56;100.00
12468;BME280;57850;52.922;6.256;2023-05-25T08:23:37;103180.44;;;18.24;100.00
12468;BME280;57850;52.922;6.256;2023-05-25T08:26:06;103192.75;;;17.95;100.00
12468;BME280;57850;52.922;6.256;2023-05-25T08:28:34;103193.22;;;18.09;100.00
12468;BME280;57850;52.922;6.256;2023-05-25T08:31:01;103198.41;;;18.12;100.00
12468;BME280;57850;52.922;6.256;2023-05-25T08:33:28;103202.06;;;18.08;100.00
12468;BME280;57850;52.922;6.256;2023-05-25T08:35:54;103202.91;;;18.10;100.00
12468;BME280;57850;52.922;6.256;2023-05-25T08:38:21;103204.84;;;18.04;100.00
12468;BME280;57850;52.922;6.256;2023-05-25T08:41:01;103194.97;;;18.10;100.00
12468;BME280;57850;52.922;6.256;2023-05-25T08:43:28;103204.75;;;18.07;100.00
12468;BME280;57850;52.922;6.256;2023-05-25T08:46:00;103209.38;;;17.99;100.00
12468;BME280;57850;52.922;6.256;2023-05-25T08:48:29;103227.09;;;17.64;100.00
12468;BME280;57850;52.922;6.256;2023-05-25T08:50:57;103221.78;;;17.66;100.00
12468;BME280;57850;52.922;6.256;2023-05-25T08:53:26;103240.38;;;17.28;100.00
12468;BME280;57850;52.922;6.256;2023-05-25T08:55:54;103228.97;;;17.27;100.00
12468;BME280;57850;52.922;6.256;2023-05-25T08:58:28;103237.84;;;17.23;100.00
12468;BME280;57850;52.922;6.256;2023-05-25T09:01:01;103233.44;;;17.24;100.00
12468;BME280;57850;52.922;6.256;2023-05-25T09:03:29;103233.91;;;17.39;100.00
12468;BME280;57850;52.922;6.256;2023-05-25T09:05:56;103232.75;;;17.51;100.00
12468;BME280;57850;52.922;6.256;2023-05-25T09:08:23;103216.69;;;17.91;100.00
12468;BME280;57850;52.922;6.256;2023-05-25T09:10:51;103204.47;;;18.16;100.00
12468;BME280;57850;52.922;6.256;2023-05-25T09:13:19;103199.13;;;18.47;100.00
12468;BME280;57850;52.922;6.256;2023-05-25T09:15:46;103207.06;;;18.45;100.00
12468;BME280;57850;52.922;6.256;2023-05-25T09:18:14;103197.75;;;18.34;100.00
12468;BME280;57850;52.922;6.256;2023-05-25T09:20:40;103186.34;;;18.61;100.00
12468;BME280;57850;52.922;6.256;2023-05-25T09:23:08;103167.84;;;18.87;100.00
12468;BME280;57850;52.922;6.256;2023-05-25T09:25:35;103133.94;;;19.94;100.00
12468;BME280;57850;52.922;6.256;2023-05-25T09:28:06;103090.31;;;20.88;100.00
12468;BME280;57850;52.922;6.256;2023-05-25T09:30:33;103093.53;;;20.74;100.00
12468;BME280;57850;52.922;6.256;2023-05-25T09:33:08;103074.31;;;21.49;100.00
12468;BME280;57850;52.922;6.256;2023-05-25T09:35:36;103107.63;;;20.76;100.00
12468;BME280;57850;52.922;6.256;2023-05-25T09:38:03;103137.59;;;19.92;100.00
12468;BME280;57850;52.922;6.256;2023-05-25T09:40:32;103171.94;;;19.22;100.00
12468;BME280;57850;52.922;6.256;2023-05-25T09:42:59;103161.25;;;19.50;100.00
12468;BME280;57850;52.922;6.256;2023-05-25T09:45:26;103185.28;;;19.19;100.00
12468;BME280;57850;52.922;6.256;2023-05-25T09:47:53;103179.91;;;19.20;100.00
12468;BME280;57850;52.922;6.256;2023-05-25T09:50:20;103157.19;;;19.88;100.00
12468;BME280;57850;52.922;6.256;2023-05-25T09:52:48;103142.53;;;20.01;100.00
12468;BME280;57850;52.922;6.256;2023-05-25T09:55:16;103139.75;;;20.04;100.00
12468;BME280;57850;52.922;6.256;2023-05-25T09:57:43;103139.28;;;19.93;100.00
12468;BME280;57850;52.922;6.256;2023-05-25T10:00:11;103144.69;;;20.13;100.00
12468;BME280;57850;52.922;6.256;2023-05-25T10:02:40;103143.91;;;20.11;100.00
12468;BME280;57850;52.922;6.256;2023-05-25T10:05:07;103121.50;;;20.61;100.00
12468;BME280;57850;52.922;6.256;2023-05-25T10:07:33;103111.16;;;20.55;100.00
12468;BME280;57850;52.922;6.256;2023-05-25T10:10:05;103122.84;;;20.51;100.00
12468;BME280;57850;52.922;6.256;2023-05-25T10:12:33;103133.75;;;20.44;100.00
12468;BME280;57850;52.922;6.256;2023-05-25T10:15:02;103086.31;;;21.57;100.00
12468;BME280;57850;52.922;6.256;2023-05-25T10:17:30;103079.34;;;21.16;100.00
12468;BME280;57850;52.922;6.256;2023-05-25T10:19:59;103095.16;;;20.99;100.00
12468;BME280;57850;52.922;6.256;2023-05-25T10:22:31;103074.38;;;21.47;100.00
12468;BME280;57850;52.922;6.256;2023-05-25T10:25:02;103078.69;;;21.50;100.00
12468;BME280;57850;52.922;6.256;2023-05-25T10:27:35;103109.75;;;21.09;100.00
12468;BME280;57850;52.922;6.256;2023-05-25T10:30:05;103083.41;;;21.43;100.00
12468;BME280;57850;52.922;6.256;2023-05-25T10:32:32;103107.53;;;20.78;100.00
12468;BME280;57850;52.922;6.256;2023-05-25T10:35:00;103074.50;;;21.44;100.00
12468;BME280;57850;52.922;6.256;2023-05-25T10:37:28;103026.38;;;22.40;100.00
12468;BME280;57850;52.922;6.256;2023-05-25T10:39:56;102962.53;;;23.55;100.00
12468;BME280;57850;52.922;6.256;2023-05-25T10:42:24;102989.28;;;22.72;99.94
12468;BME280;57850;52.922;6.256;2023-05-25T10:44:53;103071.09;;;21.42;100.00
12468;BME280;57850;52.922;6.256;2023-05-25T10:47:20;103101.19;;;20.82;100.00
12468;BME280;57850;52.922;6.256;2023-05-25T10:49:52;103003.13;;;22.96;100.00
12468;BME280;57850;52.922;6.256;2023-05-25T10:52:19;103027.56;;;22.35;100.00
12468;BME280;57850;52.922;6.256;2023-05-25T10:54:46;103021.69;;;22.63;100.00
12468;BME280;57850;52.922;6.256;2023-05-25T10:57:17;102956.84;;;23.76;100.00
12468;BME280;57850;52.922;6.256;2023-05-25T10:59:47;102938.44;;;24.31;99.82
12468;BME280;57850;52.922;6.256;2023-05-25T11:02:16;102906.75;;;24.83;98.70
12468;BME280;57850;52.922;6.256;2023-05-25T11:04:46;102968.81;;;23.54;98.75
12468;BME280;57850;52.922;6.256;2023-05-25T11:07:14;103030.75;;;22.24;99.36
12468;BME280;57850;52.922;6.256;2023-05-25T11:09:43;103042.25;;;22.08;98.95
12468;BME280;57850;52.922;6.256;2023-05-25T11:12:20;102978.38;;;23.58;99.07
12468;BME280;57850;52.922;6.256;2023-05-25T11:15:09;102911.47;;;24.78;96.84
12468;BME280;57850;52.922;6.256;2023-05-25T11:17:58;102900.44;;;24.98;96.60
12468;BME280;57850;52.922;6.256;2023-05-25T11:20:28;102893.25;;;25.13;96.07
12468;BME280;57850;52.922;6.256;2023-05-25T11:22:56;102884.53;;;25.24;95.25
12468;BME280;57850;52.922;6.256;2023-05-25T11:25:41;102868.16;;;25.82;92.98
12468;BME280;57850;52.922;6.256;2023-05-25T11:28:08;102855.88;;;25.92;90.82
12468;BME280;57850;52.922;6.256;2023-05-25T11:30:36;102840.88;;;25.77;91.18
12468;BME280;57850;52.922;6.256;2023-05-25T11:33:04;102876.25;;;25.14;92.85
12468;BME280;57850;52.922;6.256;2023-05-25T11:35:33;102882.53;;;24.86;91.32
12468;BME280;57850;52.922;6.256;2023-05-25T11:38:04;102855.44;;;25.85;90.65
12468;BME280;57850;52.922;6.256;2023-05-25T11:40:31;102887.34;;;24.66;92.31
12468;BME280;57850;52.922;6.256;2023-05-25T11:42:58;102864.41;;;25.72;91.26
12468;BME280;57850;52.922;6.256;2023-05-25T11:45:27;102842.59;;;26.41;92.40
12468;BME280;57850;52.922;6.256;2023-05-25T11:47:54;102843.19;;;26.21;91.44
12468;BME280;57850;52.922;6.256;2023-05-25T11:50:22;102867.09;;;25.18;88.80
12468;BME280;57850;52.922;6.256;2023-05-25T11:52:49;102861.91;;;25.56;88.74
12468;BME280;57850;52.922;6.256;2023-05-25T11:55:15;102814.53;;;26.59;88.25
12468;BME280;57850;52.922;6.256;2023-05-25T11:57:42;102897.00;;;24.40;90.57
12468;BME280;57850;52.922;6.256;2023-05-25T12:00:09;102909.75;;;24.35;91.40
12468;BME280;57850;52.922;6.256;2023-05-25T12:02:37;102856.25;;;25.61;89.19
12468;BME280;57850;52.922;6.256;2023-05-25T12:05:04;102838.94;;;25.91;88.44
12468;BME280;57850;52.922;6.256;2023-05-25T12:07:34;102820.69;;;26.23;88.77
12468;BME280;57850;52.922;6.256;2023-05-25T12:10:08;102820.13;;;26.56;87.45
12468;BME280;57850;52.922;6.256;2023-05-25T12:12:41;102814.97;;;26.53;87.08
12468;BME280;57850;52.922;6.256;2023-05-25T12:15:09;102852.09;;;25.16;88.13
12468;BME280;57850;52.922;6.256;2023-05-25T12:17:39;102842.78;;;25.62;88.44
12468;BME280;57850;52.922;6.256;2023-05-25T12:20:07;102826.69;;;26.27;88.22
12468;BME280;57850;52.922;6.256;2023-05-25T12:22:36;102833.81;;;25.88;87.08
12468;BME280;57850;52.922;6.256;2023-05-25T12:25:05;102838.28;;;25.75;88.08
12468;BME280;57850;52.922;6.256;2023-05-25T12:27:31;102838.19;;;25.77;88.70
12468;BME280;57850;52.922;6.256;2023-05-25T12:29:58;102851.88;;;25.19;87.69
12468;BME280;57850;52.922;6.256;2023-05-25T12:32:25;102830.41;;;25.86;87.46
12468;BME280;57850;52.922;6.256;2023-05-25T12:35:00;102809.75;;;26.26;86.97
12468;BME280;57850;52.922;6.256;2023-05-25T12:37:27;102798.72;;;26.43;87.12
12468;BME280;57850;52.922;6.256;2023-05-25T12:39:55;102817.88;;;25.74;87.51
12468;BME280;57850;52.922;6.256;2023-05-25T12:42:22;102826.31;;;25.68;88.31
12468;BME280;57850;52.922;6.256;2023-05-25T12:44:53;102822.84;;;26.18;89.79
12468;BME280;57850;52.922;6.256;2023-05-25T12:47:22;102808.78;;;26.15;88.76